Time;durP1;ratioP1;P1;durP2;ratioP2;P2;SDS_P1;SDS_P2;PMS_P1;PMS_P2;Temp;Humidity;BMP_temperature;BMP_pressure;BME280_temperature;BME280_humidity;BME280_pressure;Samples;Min_cycle;Max_cycle;Signal;HPM_P1;HPM_P2
2022/10/09 00:01:15;;;;;;;4.80;4.40;;;13.30;90.10;;;;;;5076426;28;20460;-44
2022/10/09 00:03:42;;;;;;;5.37;4.20;;;13.20;90.10;;;;;;5076532;28;20449;-43
2022/10/09 00:06:10;;;;;;;6.40;4.73;;;13.20;90.10;;;;;;5076025;28;20501;-44
2022/10/09 00:08:38;;;;;;;5.43;4.70;;;13.20;90.10;;;;;;5076554;28;20502;-44
2022/10/09 00:11:08;;;;;;;6.20;5.60;;;13.10;90.10;;;;;;5076033;28;20425;-43
2022/10/09 00:13:35;;;;;;;5.70;5.10;;;13.10;90.10;;;;;;5076131;28;20473;-45
2022/10/09 00:16:06;;;;;;;7.30;5.33;;;13.00;90.10;;;;;;5077347;28;20692;-43
2022/10/09 00:18:32;;;;;;;5.27;4.77;;;13.00;90.10;;;;;;5093175;28;20436;-43
2022/10/09 00:20:57;;;;;;;5.60;5.00;;;13.00;90.10;;;;;;5076045;28;20546;-44
2022/10/09 00:23:23;;;;;;;6.23;5.40;;;13.00;90.20;;;;;;5075880;28;20509;-45
2022/10/09 00:25:59;;;;;;;7.40;5.63;;;12.90;90.20;;;;;;5075755;28;20273;-44
2022/10/09 00:28:27;;;;;;;5.13;4.63;;;12.90;90.20;;;;;;5077022;28;20479;-48
2022/10/09 00:30:53;;;;;;;5.93;4.90;;;12.90;90.20;;;;;;5076207;28;20466;-44
2022/10/09 00:33:19;;;;;;;5.90;4.40;;;12.80;90.20;;;;;;5076333;28;20462;-46
2022/10/09 00:35:45;;;;;;;7.00;4.53;;;12.80;90.40;;;;;;5076122;28;20453;-45
2022/10/09 00:38:11;;;;;;;6.10;4.20;;;12.80;90.40;;;;;;5074682;28;20731;-43
2022/10/09 00:40:38;;;;;;;6.67;4.63;;;12.80;90.40;;;;;;5074618;28;20424;-45
2022/10/09 00:43:06;;;;;;;6.43;5.10;;;12.80;90.50;;;;;;5074736;28;20416;-42
2022/10/09 00:45:31;;;;;;;5.20;4.70;;;12.80;90.50;;;;;;5075681;28;20538;-44
2022/10/09 00:48:00;;;;;;;5.80;4.50;;;12.70;90.40;;;;;;5073222;28;20524;-45
2022/10/09 00:50:33;;;;;;;4.90;4.40;;;12.70;90.40;;;;;;5073492;28;20185;-45
2022/10/09 00:53:00;;;;;;;5.20;3.83;;;12.70;90.50;;;;;;5075205;28;20526;-43
2022/10/09 00:55:28;;;;;;;5.93;5.20;;;12.60;90.50;;;;;;5075636;28;20424;-45
2022/10/09 00:57:55;;;;;;;5.47;3.60;;;12.60;90.60;;;;;;5076808;28;20563;-45
2022/10/09 01:00:21;;;;;;;6.03;5.53;;;12.60;90.70;;;;;;5075436;28;20465;-44
2022/10/09 01:02:47;;;;;;;5.00;4.50;;;12.60;90.90;;;;;;5073925;28;20454;-45
2022/10/09 01:05:12;;;;;;;6.67;4.60;;;12.60;91.00;;;;;;5074683;28;20543;-45
2022/10/09 01:07:57;;;;;;;5.27;3.80;;;12.60;91.10;;;;;;5074054;28;20713;-45
2022/10/09 01:10:26;;;;;;;5.47;4.33;;;12.60;91.40;;;;;;5073780;28;20842;-45
2022/10/09 01:13:09;;;;;;;4.30;3.90;;;12.60;91.60;;;;;;5074992;28;20471;-45
2022/10/09 01:15:45;;;;;;;4.63;4.20;;;12.50;91.70;;;;;;5074443;28;20535;-46
2022/10/09 01:18:29;;;;;;;5.03;3.80;;;12.60;91.90;;;;;;5091160;28;20434;-45
2022/10/09 01:21:23;;;;;;;7.03;3.90;;;12.50;92.10;;;;;;5076423;28;20742;-45
2022/10/09 01:24:02;;;;;;;6.37;3.73;;;12.60;92.30;;;;;;5076671;28;20442;-45
2022/10/09 01:26:45;;;;;;;8.30;4.30;;;12.50;92.50;;;;;;5077050;28;20719;-44
2022/10/09 01:29:11;;;;;;;6.00;3.70;;;12.50;92.60;;;;;;5076494;28;20434;-46
2022/10/09 01:31:40;;;;;;;3.70;3.30;;;12.60;92.80;;;;;;5076995;28;20781;-45
2022/10/09 01:34:07;;;;;;;4.63;3.90;;;12.50;92.90;;;;;;5075755;28;20900;-45
2022/10/09 01:36:34;;;;;;;5.43;3.60;;;12.60;93.10;;;;;;5075863;28;20524;-45
2022/10/09 01:39:01;;;;;;;3.80;2.93;;;12.60;93.20;;;;;;5075498;28;20415;-43
2022/10/09 01:41:27;;;;;;;6.50;3.67;;;12.60;93.30;;;;;;5074778;28;20491;-44
2022/10/09 01:43:52;;;;;;;7.00;3.20;;;12.60;93.40;;;;;;5075824;28;20866;-47
2022/10/09 01:46:21;;;;;;;4.60;3.30;;;12.60;93.50;;;;;;5073981;28;20245;-45
2022/10/09 01:49:12;;;;;;;5.13;3.40;;;12.60;93.50;;;;;;5075388;28;20173;-45
2022/10/09 01:51:46;;;;;;;4.83;3.00;;;12.60;93.50;;;;;;5071806;28;20435;-44
2022/10/09 01:54:14;;;;;;;4.30;3.77;;;12.60;93.50;;;;;;5075410;28;20467;-47
2022/10/09 01:56:40;;;;;;;4.17;3.20;;;12.60;93.60;;;;;;5073738;28;20482;-44
2022/10/09 01:59:11;;;;;;;6.57;3.87;;;12.60;93.60;;;;;;5073804;28;20469;-45
2022/10/09 02:01:38;;;;;;;5.83;3.70;;;12.60;93.70;;;;;;5074325;28;20434;-44
2022/10/09 02:04:06;;;;;;;7.00;3.40;;;12.50;93.60;;;;;;5074156;28;20422;-45
2022/10/09 02:06:33;;;;;;;5.33;3.77;;;12.50;93.70;;;;;;5076438;28;20423;-43
2022/10/09 02:08:58;;;;;;;3.70;2.93;;;12.50;93.80;;;;;;5073683;28;20421;-44
2022/10/09 02:11:27;;;;;;;7.37;3.60;;;12.50;93.70;;;;;;5074248;28;20419;-46
2022/10/09 02:13:53;;;;;;;5.23;3.27;;;12.50;93.70;;;;;;5073416;28;20212;-43
2022/10/09 02:16:41;;;;;;;4.30;2.80;;;12.50;93.70;;;;;;5073371;28;20420;-44
2022/10/09 02:19:09;;;;;;;3.20;2.90;;;12.50;93.70;;;;;;5072912;28;20422;-46
2022/10/09 02:21:35;;;;;;;6.10;3.83;;;12.50;93.70;;;;;;5074591;28;20412;-45
2022/10/09 02:24:00;;;;;;;4.03;2.87;;;12.50;93.70;;;;;;5073654;28;20489;-44
2022/10/09 02:26:26;;;;;;;5.77;3.63;;;12.40;93.60;;;;;;5074816;28;20197;-46
2022/10/09 02:28:52;;;;;;;4.03;3.27;;;12.40;93.60;;;;;;5074456;28;20263;-43
2022/10/09 02:31:29;;;;;;;6.37;3.30;;;12.40;93.60;;;;;;5076742;28;20190;-44
2022/10/09 02:34:03;;;;;;;3.87;3.00;;;12.40;93.50;;;;;;5076005;28;20200;-43
2022/10/09 02:36:29;;;;;;;3.20;2.90;;;12.40;93.50;;;;;;5076018;28;20423;-45
2022/10/09 02:38:56;;;;;;;6.60;3.47;;;12.30;93.40;;;;;;5076602;28;20426;-46
2022/10/09 02:41:22;;;;;;;4.20;3.23;;;12.30;93.50;;;;;;5076666;28;20559;-46
2022/10/09 02:43:48;;;;;;;3.63;3.07;;;12.30;93.50;;;;;;5075971;28;20709;-47
2022/10/09 02:46:14;;;;;;;5.90;3.60;;;12.30;93.50;;;;;;5074869;28;20430;-44
2022/10/09 02:48:39;;;;;;;4.67;3.43;;;12.30;93.50;;;;;;5076345;28;20521;-45
2022/10/09 02:51:05;;;;;;;4.00;3.20;;;12.30;93.50;;;;;;5076822;28;20203;-45
2022/10/09 02:53:31;;;;;;;4.53;3.60;;;12.20;93.40;;;;;;5076125;28;20234;-45
2022/10/09 02:55:57;;;;;;;4.87;3.67;;;12.20;93.40;;;;;;5075062;28;20314;-44
2022/10/09 02:58:22;;;;;;;6.20;3.47;;;12.20;93.20;;;;;;5076231;28;20192;-43
2022/10/09 03:00:52;;;;;;;4.93;3.67;;;12.20;93.20;;;;;;5075472;28;20643;-45
2022/10/09 03:03:19;;;;;;;5.10;3.50;;;12.10;93.00;;;;;;5075227;28;20199;-46
2022/10/09 03:05:45;;;;;;;3.93;3.37;;;12.10;92.90;;;;;;5075856;28;20453;-47
2022/10/09 03:08:11;;;;;;;4.33;3.60;;;12.00;92.70;;;;;;5075689;28;20418;-44
2022/10/09 03:10:37;;;;;;;5.53;4.10;;;12.00;92.70;;;;;;5075238;28;20416;-45
2022/10/09 03:13:03;;;;;;;3.80;3.37;;;12.00;92.60;;;;;;5075733;28;20711;-45
2022/10/09 03:15:32;;;;;;;4.37;3.23;;;11.90;92.50;;;;;;5079218;28;20908;-44
2022/10/09 03:17:57;;;;;;;3.80;3.50;;;11.90;92.40;;;;;;5079745;28;20427;-44
2022/10/09 03:20:23;;;;;;;4.93;3.70;;;11.80;92.30;;;;;;5077064;28;20456;-46
2022/10/09 03:22:48;;;;;;;5.07;3.60;;;11.80;92.30;;;;;;5078879;28;20184;-44
2022/10/09 03:25:14;;;;;;;5.10;4.20;;;11.80;92.20;;;;;;5077318;28;20275;-45
2022/10/09 03:27:40;;;;;;;4.40;4.00;;;11.80;92.30;;;;;;5079805;28;20411;-46
2022/10/09 03:30:06;;;;;;;4.10;3.70;;;11.70;92.40;;;;;;5079607;28;20240;-48
2022/10/09 03:32:32;;;;;;;7.37;4.00;;;11.70;92.50;;;;;;5079587;28;20191;-46
2022/10/09 03:34:57;;;;;;;6.47;3.90;;;11.70;92.80;;;;;;5079483;28;20440;-46
2022/10/09 03:37:23;;;;;;;4.93;3.77;;;11.70;92.90;;;;;;5078506;28;20581;-46
2022/10/09 03:39:48;;;;;;;4.50;4.03;;;11.70;93.10;;;;;;5078344;28;20252;-46
2022/10/09 03:42:14;;;;;;;5.23;3.30;;;11.70;93.30;;;;;;5094986;28;20182;-44
2022/10/09 03:44:40;;;;;;;8.73;4.20;;;11.70;93.40;;;;;;5078845;28;20161;-46
2022/10/09 03:47:05;;;;;;;4.97;4.20;;;11.70;93.50;;;;;;5078817;28;20211;-45
2022/10/09 03:49:31;;;;;;;4.90;3.60;;;11.70;93.50;;;;;;5078914;28;20182;-44
2022/10/09 03:51:56;;;;;;;4.23;3.50;;;11.70;93.70;;;;;;5079144;28;20192;-45
2022/10/09 03:54:22;;;;;;;3.50;3.20;;;11.70;93.80;;;;;;5079193;28;20616;-46
2022/10/09 03:56:47;;;;;;;4.37;3.87;;;11.70;93.90;;;;;;5079364;28;20622;-48
2022/10/09 03:59:13;;;;;;;4.80;3.10;;;11.70;94.00;;;;;;5078773;28;20173;-45
2022/10/09 04:01:39;;;;;;;5.60;3.60;;;11.70;94.00;;;;;;5078855;28;20179;-45
2022/10/09 04:04:04;;;;;;;6.67;4.00;;;11.70;94.00;;;;;;5078924;28;20430;-46
2022/10/09 04:06:30;;;;;;;5.77;3.60;;;11.70;94.00;;;;;;5079379;28;20201;-44
2022/10/09 04:08:56;;;;;;;5.57;3.80;;;11.70;94.00;;;;;;5078597;28;20500;-46
2022/10/09 04:11:21;;;;;;;5.47;3.80;;;11.70;94.00;;;;;;5077942;28;20465;-43
2022/10/09 04:13:47;;;;;;;4.60;4.10;;;11.70;94.10;;;;;;5078648;28;20199;-46
2022/10/09 04:16:12;;;;;;;7.97;3.27;;;11.70;94.00;;;;;;5078046;28;20181;-44
2022/10/09 04:18:39;;;;;;;5.87;3.63;;;11.70;94.30;;;;;;5079013;28;20181;-45
2022/10/09 04:21:05;;;;;;;4.93;3.63;;;11.70;94.00;;;;;;5077164;28;20263;-45
2022/10/09 04:23:31;;;;;;;4.77;3.20;;;11.70;93.90;;;;;;5078664;28;20432;-45
2022/10/09 04:25:58;;;;;;;7.17;4.20;;;11.70;93.80;;;;;;5077682;28;20429;-43
2022/10/09 04:28:27;;;;;;;4.97;3.90;;;11.60;93.90;;;;;;5077939;28;20467;-45
2022/10/09 04:30:53;;;;;;;4.17;3.70;;;11.60;93.90;;;;;;5077628;28;20495;-44
2022/10/09 04:33:19;;;;;;;6.37;4.00;;;11.60;93.90;;;;;;5077812;28;20705;-44
2022/10/09 04:35:49;;;;;;;5.23;3.30;;;11.60;93.90;;;;;;5077982;28;20184;-46
2022/10/09 04:38:14;;;;;;;4.80;3.63;;;11.60;93.90;;;;;;5078616;28;20199;-46
2022/10/09 04:40:40;;;;;;;4.47;3.80;;;11.60;94.00;;;;;;5078187;28;20562;-45
2022/10/09 04:43:06;;;;;;;5.20;4.10;;;11.60;94.00;;;;;;5076347;28;20184;-46
2022/10/09 04:45:31;;;;;;;5.40;4.43;;;11.60;94.10;;;;;;5077065;28;20278;-44
2022/10/09 04:47:57;;;;;;;4.47;3.60;;;11.60;94.00;;;;;;5077678;28;20204;-44
2022/10/09 04:50:23;;;;;;;5.03;3.70;;;11.60;94.10;;;;;;5093654;28;20186;-45
2022/10/09 04:52:48;;;;;;;4.10;3.60;;;11.60;94.10;;;;;;5076847;28;20528;-45
2022/10/09 04:55:14;;;;;;;4.47;3.70;;;11.60;94.00;;;;;;5076971;28;20423;-46
2022/10/09 04:57:40;;;;;;;4.30;3.90;;;11.50;93.90;;;;;;5077747;28;20215;-47
2022/10/09 05:00:06;;;;;;;4.53;4.07;;;11.50;93.90;;;;;;5078086;28;20177;-45
2022/10/09 05:02:32;;;;;;;4.80;3.60;;;11.50;93.80;;;;;;5077873;28;20646;-44
2022/10/09 05:04:57;;;;;;;5.90;3.73;;;11.50;94.20;;;;;;5077884;28;20513;-44
2022/10/09 05:07:23;;;;;;;4.47;4.00;;;11.50;93.80;;;;;;5076746;28;20177;-47
2022/10/09 05:09:49;;;;;;;4.30;3.70;;;11.40;93.40;;;;;;5075980;28;20163;-45
2022/10/09 05:12:15;;;;;;;5.37;4.27;;;11.30;93.00;;;;;;5075392;28;20422;-44
2022/10/09 05:14:40;;;;;;;4.73;4.33;;;11.10;92.90;;;;;;5074904;28;20205;-45
2022/10/09 05:17:06;;;;;;;4.80;4.00;;;11.00;92.90;;;;;;5076246;28;20291;-47
2022/10/09 05:19:32;;;;;;;6.10;4.50;;;10.90;93.00;;;;;;5076022;28;20194;-47
2022/10/09 05:21:59;;;;;;;7.00;4.70;;;10.80;93.10;;;;;;5074338;28;20172;-43
2022/10/09 05:24:24;;;;;;;7.33;4.50;;;10.70;93.40;;;;;;5075761;28;20445;-44
2022/10/09 05:26:51;;;;;;;5.57;3.73;;;10.60;93.70;;;;;;5076175;28;20430;-46
2022/10/09 05:29:17;;;;;;;7.77;5.10;;;10.50;93.90;;;;;;5076167;28;20173;-45
2022/10/09 05:31:42;;;;;;;5.60;4.80;;;10.50;94.20;;;;;;5077023;28;20478;-48
2022/10/09 05:34:09;;;;;;;6.10;4.40;;;10.50;94.40;;;;;;5076304;28;20212;-46
2022/10/09 05:36:35;;;;;;;8.53;4.40;;;10.40;94.50;;;;;;5076682;28;20829;-44
2022/10/09 05:39:01;;;;;;;5.67;4.00;;;10.40;94.60;;;;;;5077363;28;20411;-46
2022/10/09 05:41:30;;;;;;;6.53;4.80;;;10.40;94.70;;;;;;5077212;28;20486;-46
2022/10/09 05:43:59;;;;;;;5.07;4.27;;;10.40;94.80;;;;;;5077190;28;20507;-45
2022/10/09 05:46:25;;;;;;;5.10;3.60;;;10.40;94.90;;;;;;5076208;28;20481;-46
2022/10/09 05:48:56;;;;;;;6.40;4.13;;;10.40;95.00;;;;;;5076006;28;20431;-44
2022/10/09 05:51:24;;;;;;;6.80;4.37;;;10.40;95.00;;;;;;5075904;28;20166;-45
2022/10/09 05:53:50;;;;;;;5.40;4.10;;;10.50;95.20;;;;;;5076158;28;20489;-46
2022/10/09 05:56:20;;;;;;;5.00;4.30;;;10.50;95.20;;;;;;5075006;28;20527;-45
2022/10/09 05:58:53;;;;;;;9.97;4.83;;;10.50;95.20;;;;;;5092440;28;20837;-45
2022/10/09 06:01:20;;;;;;;7.70;4.70;;;10.50;95.10;;;;;;5077351;28;20488;-45
2022/10/09 06:03:51;;;;;;;5.00;4.07;;;10.50;95.10;;;;;;5077255;28;20848;-45
2022/10/09 06:06:19;;;;;;;5.00;4.40;;;10.60;95.10;;;;;;5076435;28;20841;-43
2022/10/09 06:08:45;;;;;;;5.67;4.93;;;10.60;94.90;;;;;;5076474;28;20442;-45
2022/10/09 06:11:19;;;;;;;4.87;4.20;;;10.60;94.90;;;;;;5076654;28;20438;-44
2022/10/09 06:13:45;;;;;;;8.10;4.27;;;10.60;95.00;;;;;;5074963;28;20473;-44
2022/10/09 06:16:13;;;;;;;8.07;5.27;;;10.70;94.50;;;;;;5076287;28;20853;-43
2022/10/09 06:18:39;;;;;;;10.07;4.70;;;10.80;94.30;;;;;;5076725;28;20575;-46
2022/10/09 06:21:05;;;;;;;6.27;4.50;;;10.80;94.10;;;;;;5075219;28;20416;-46
2022/10/09 06:23:31;;;;;;;4.67;4.27;;;11.00;94.20;;;;;;5076450;28;20894;-45
2022/10/09 06:25:59;;;;;;;3.90;3.50;;;11.20;94.10;;;;;;5074515;28;20468;-45
2022/10/09 06:28:27;;;;;;;5.07;4.57;;;11.30;93.80;;;;;;5075947;28;20420;-45
2022/10/09 06:30:52;;;;;;;4.90;4.40;;;11.60;94.00;;;;;;5075169;28;20504;-47
2022/10/09 06:33:18;;;;;;;5.27;3.80;;;11.90;93.90;;;;;;5074105;28;21068;-51
2022/10/09 06:35:43;;;;;;;4.07;3.63;;;12.40;93.60;;;;;;5073062;28;20182;-45
2022/10/09 06:38:09;;;;;;;4.63;3.43;;;12.70;92.90;;;;;;5072362;28;20262;-45
2022/10/09 06:40:36;;;;;;;5.70;3.53;;;13.00;92.20;;;;;;5073101;28;20191;-47
2022/10/09 06:43:02;;;;;;;5.60;3.87;;;13.30;91.90;;;;;;5073008;28;20852;-48
2022/10/09 06:45:28;;;;;;;4.93;3.80;;;13.60;91.50;;;;;;5072452;28;20448;-48
2022/10/09 06:47:54;;;;;;;6.40;4.10;;;13.90;91.10;;;;;;5074226;28;20469;-44
2022/10/09 06:50:20;;;;;;;5.50;3.73;;;14.20;90.90;;;;;;5077661;28;20817;-44
2022/10/09 06:52:45;;;;;;;4.33;3.40;;;14.60;90.50;;;;;;5079935;28;20199;-44
2022/10/09 06:55:11;;;;;;;3.17;2.87;;;15.00;90.10;;;;;;5080520;28;20182;-44
2022/10/09 06:57:36;;;;;;;5.43;3.40;;;15.30;89.10;;;;;;5096186;28;20323;-46
2022/10/09 07:00:03;;;;;;;5.10;3.67;;;15.70;88.50;;;;;;5080598;28;20176;-45
2022/10/09 07:02:31;;;;;;;5.17;3.00;;;16.20;87.50;;;;;;5079303;28;20179;-47
2022/10/09 07:04:57;;;;;;;5.40;3.10;;;16.60;85.50;;;;;;5080254;28;20442;-48
2022/10/09 07:07:23;;;;;;;3.97;3.43;;;17.00;84.10;;;;;;5077021;28;20556;-44
2022/10/09 07:09:51;;;;;;;3.63;2.97;;;17.40;82.40;;;;;;5079406;28;20495;-45
2022/10/09 07:12:17;;;;;;;4.70;2.77;;;17.80;80.90;;;;;;5094243;28;20188;-47
2022/10/09 07:14:42;;;;;;;4.63;3.20;;;18.20;79.10;;;;;;5077707;28;20915;-45
2022/10/09 07:17:08;;;;;;;3.47;3.17;;;18.50;77.50;;;;;;5077462;28;20171;-45
2022/10/09 07:19:34;;;;;;;3.27;2.97;;;18.90;76.00;;;;;;5077567;28;20666;-44
2022/10/09 07:22:00;;;;;;;6.70;3.40;;;19.20;74.50;;;;;;5076903;28;20513;-47
2022/10/09 07:24:25;;;;;;;4.20;2.80;;;19.60;73.50;;;;;;5078361;28;20180;-44
2022/10/09 07:26:54;;;;;;;4.10;3.33;;;19.90;72.00;;;;;;5077066;28;20463;-45
2022/10/09 07:29:19;;;;;;;3.23;2.87;;;20.30;69.80;;;;;;5077567;28;20169;-44
2022/10/09 07:31:45;;;;;;;5.03;3.23;;;20.70;68.40;;;;;;5077616;28;20790;-46
2022/10/09 07:34:11;;;;;;;4.23;3.33;;;21.20;66.60;;;;;;5077940;28;20193;-45
2022/10/09 07:36:36;;;;;;;4.50;2.90;;;21.80;64.60;;;;;;5078722;28;20178;-48
2022/10/09 07:39:06;;;;;;;3.33;3.00;;;22.40;62.50;;;;;;5079080;28;20162;-47
2022/10/09 07:41:32;;;;;;;5.60;2.97;;;23.10;59.70;;;;;;5075404;28;20312;-47
2022/10/09 07:43:57;;;;;;;4.50;3.50;;;23.90;57.90;;;;;;5075314;28;20713;-46
2022/10/09 07:46:25;;;;;;;5.40;3.80;;;24.70;55.00;;;;;;5074626;28;20448;-44
2022/10/09 07:48:51;;;;;;;5.43;3.53;;;25.40;52.90;;;;;;5076494;28;20509;-44
2022/10/09 07:51:23;;;;;;;3.57;3.27;;;26.20;50.70;;;;;;5092113;28;20424;-47
2022/10/09 07:53:49;;;;;;;4.07;3.63;;;26.90;48.70;;;;;;5075374;28;20799;-47
2022/10/09 07:56:27;;;;;;;4.27;3.10;;;27.60;47.00;;;;;;5092825;28;20468;-46
2022/10/09 07:59:01;;;;;;;4.30;3.40;;;28.20;45.40;;;;;;5077041;28;20417;-47
2022/10/09 08:01:28;;;;;;;3.13;2.83;;;28.80;43.20;;;;;;5076434;28;20409;-45
2022/10/09 08:03:54;;;;;;;4.07;3.13;;;29.40;42.30;;;;;;5074921;28;20942;-46
2022/10/09 08:06:20;;;;;;;5.90;3.30;;;30.00;40.80;;;;;;5074168;28;20422;-45
2022/10/09 08:08:53;;;;;;;4.77;3.30;;;30.70;40.10;;;;;;5073443;28;20437;-45
2022/10/09 08:11:19;;;;;;;3.00;2.70;;;31.20;38.90;;;;;;5074179;28;20191;-45
2022/10/09 08:13:46;;;;;;;3.20;2.90;;;31.80;38.20;;;;;;5073175;28;20475;-46
2022/10/09 08:16:12;;;;;;;4.83;3.37;;;32.30;37.40;;;;;;5075712;28;20815;-46
2022/10/09 08:18:38;;;;;;;6.00;3.60;;;32.70;36.80;;;;;;5075336;28;20438;-48
2022/10/09 08:21:06;;;;;;;5.47;3.93;;;33.00;35.70;;;;;;5075256;28;20856;-51
2022/10/09 08:23:32;;;;;;;3.80;2.73;;;33.10;34.90;;;;;;5078111;28;20718;-45
2022/10/09 08:25:57;;;;;;;3.07;2.20;;;33.30;34.60;;;;;;5078490;28;20445;-45
2022/10/09 08:28:23;;;;;;;4.00;2.53;;;33.70;34.40;;;;;;5077638;28;20288;-56
2022/10/09 08:30:49;;;;;;;3.00;2.70;;;34.10;33.60;;;;;;5077734;28;20259;-45
2022/10/09 08:33:19;;;;;;;2.90;2.70;;;34.70;32.90;;;;;;5077750;28;20588;-45
2022/10/09 08:35:44;;;;;;;3.23;2.80;;;35.10;32.30;;;;;;5076283;28;20190;-46
2022/10/09 08:38:10;;;;;;;3.30;2.97;;;35.20;31.50;;;;;;5076132;28;20839;-46
2022/10/09 08:40:48;;;;;;;3.13;2.73;;;35.80;31.20;;;;;;5076873;28;20306;-45
2022/10/09 08:43:18;;;;;;;3.77;2.73;;;36.60;30.60;;;;;;5075381;28;20218;-44
2022/10/09 08:45:44;;;;;;;3.33;2.57;;;37.00;30.40;;;;;;5074264;28;20400;-43
2022/10/09 08:48:21;;;;;;;2.87;2.53;;;37.60;29.80;;;;;;5075108;28;20430;-46
2022/10/09 08:50:49;;;;;;;3.00;2.70;;;38.30;29.10;;;;;;5076224;28;20417;-43
2022/10/09 08:53:31;;;;;;;3.03;2.73;;;38.70;28.50;;;;;;5073430;28;20457;-50
2022/10/09 08:56:00;;;;;;;4.00;2.83;;;39.20;28.30;;;;;;5075053;28;20471;-45
2022/10/09 08:58:38;;;;;;;3.00;2.60;;;39.70;28.00;;;;;;5074890;28;20776;-43
2022/10/09 09:01:35;;;;;;;2.90;2.33;;;40.30;27.50;;;;;;5074198;28;20514;-46
2022/10/09 09:04:13;;;;;;;4.73;2.90;;;40.40;27.00;;;;;;5090721;28;20469;-46
2022/10/09 09:06:50;;;;;;;4.93;2.70;;;40.60;26.80;;;;;;5074749;28;20404;-47
2022/10/09 09:09:42;;;;;;;3.10;2.40;;;41.00;26.60;;;;;;5076750;28;20437;-44
2022/10/09 09:12:26;;;;;;;3.60;2.90;;;41.40;26.60;;;;;;5075582;28;20473;-46
2022/10/09 09:15:28;;;;;;;3.43;3.10;;;41.50;26.20;;;;;;5075984;28;20426;-46
2022/10/09 09:18:21;;;;;;;2.73;2.20;;;41.70;26.00;;;;;;5090778;28;20473;-44
2022/10/09 09:20:55;;;;;;;3.50;2.90;;;41.90;25.90;;;;;;5084172;28;20700;-47
2022/10/09 09:23:50;;;;;;;2.73;2.47;;;42.20;26.00;;;;;;5077105;28;20437;-45
2022/10/09 09:26:18;;;;;;;2.70;2.47;;;42.30;25.80;;;;;;5072699;28;20423;-43
2022/10/09 09:28:44;;;;;;;3.23;2.60;;;42.40;25.60;;;;;;5076735;28;20434;-43
2022/10/09 09:31:25;;;;;;;2.43;2.23;;;42.50;25.60;;;;;;5075246;28;20387;-45
2022/10/09 09:34:15;;;;;;;3.67;2.50;;;42.50;25.70;;;;;;5075483;28;20540;-44
2022/10/09 09:36:43;;;;;;;2.67;2.47;;;42.40;25.60;;;;;;5072538;28;20459;-43
2022/10/09 09:39:10;;;;;;;2.73;2.50;;;42.20;25.50;;;;;;5097239;28;20424;-45
2022/10/09 09:41:36;;;;;;;4.00;2.50;;;42.00;25.50;;;;;;5095246;28;20404;-44
2022/10/09 09:44:02;;;;;;;3.93;2.73;;;41.70;25.70;;;;;;5095634;28;20775;-49
2022/10/09 09:46:29;;;;;;;3.57;2.77;;;41.40;25.60;;;;;;5077632;28;20297;-46
2022/10/09 09:48:55;;;;;;;3.37;2.27;;;41.20;25.80;;;;;;5086879;28;20702;-45
2022/10/09 09:51:30;;;;;;;3.23;2.40;;;41.10;25.80;;;;;;5085464;28;20489;-44
2022/10/09 09:53:56;;;;;;;2.40;2.20;;;40.90;25.90;;;;;;5096171;28;20231;-44
2022/10/09 09:56:39;;;;;;;2.73;2.17;;;40.80;26.30;;;;;;5095287;28;20561;-44
2022/10/09 09:59:05;;;;;;;2.47;2.10;;;40.70;25.80;;;;;;5096487;28;20397;-45
2022/10/09 10:01:32;;;;;;;2.70;2.40;;;40.90;25.80;;;;;;5094427;28;20413;-50
2022/10/09 10:04:00;;;;;;;2.70;2.40;;;41.10;25.60;;;;;;5096293;28;20437;-48
2022/10/09 10:06:34;;;;;;;2.53;2.33;;;41.30;25.60;;;;;;5095900;28;20469;-45
2022/10/09 10:09:18;;;;;;;2.20;2.03;;;41.70;25.40;;;;;;5093651;28;20446;-45
2022/10/09 10:12:05;;;;;;;3.23;2.27;;;42.00;25.50;;;;;;5094397;28;20467;-44
2022/10/09 10:14:31;;;;;;;2.90;2.20;;;42.60;24.90;;;;;;5094808;28;20872;-45
2022/10/09 10:16:59;;;;;;;2.40;2.10;;;43.10;24.60;;;;;;5094031;28;20415;-47
2022/10/09 10:19:25;;;;;;;2.40;1.80;;;43.80;24.60;;;;;;5094496;28;20428;-45
2022/10/09 10:22:00;;;;;;;2.03;1.77;;;44.80;24.40;;;;;;5094107;28;20417;-45
2022/10/09 10:24:41;;;;;;;2.13;1.93;;;45.80;24.10;;;;;;5094773;28;20708;-46
2022/10/09 10:27:19;;;;;;;2.97;1.87;;;46.60;23.70;;;;;;5094881;28;20432;-45
2022/10/09 10:29:45;;;;;;;2.60;2.20;;;47.40;23.30;;;;;;5095610;28;20469;-47
2022/10/09 10:32:14;;;;;;;2.00;1.80;;;48.20;23.50;;;;;;5094619;28;20415;-45
2022/10/09 10:35:01;;;;;;;2.53;1.90;;;48.90;22.90;;;;;;5095401;28;20466;-46
2022/10/09 10:37:59;;;;;;;2.17;1.80;;;49.20;22.40;;;;;;5094965;28;20427;-46
2022/10/09 10:40:35;;;;;;;4.23;1.70;;;49.60;22.40;;;;;;5096742;28;20697;-48
2022/10/09 10:43:09;;;;;;;2.83;1.90;;;49.10;24.10;;;;;;5095694;28;20447;-47
2022/10/09 10:45:49;;;;;;;2.20;2.00;;;49.10;23.90;;;;;;5094820;28;20492;-46
2022/10/09 10:48:22;;;;;;;2.27;2.07;;;49.20;23.80;;;;;;5092107;28;20501;-47
2022/10/09 10:51:27;;;;;;;1.83;1.53;;;49.00;23.60;;;;;;5093452;28;20417;-47
2022/10/09 10:54:31;;;;;;;1.90;1.70;;;48.90;24.00;;;;;;5090390;28;20813;-47
2022/10/09 10:57:13;;;;;;;3.20;2.27;;;49.10;23.40;;;;;;5075518;28;20477;-47
2022/10/09 10:59:48;;;;;;;2.53;1.80;;;49.10;23.20;;;;;;5087491;28;20440;-46
2022/10/09 11:02:41;;;;;;;3.90;2.20;;;49.20;23.30;;;;;;5096114;28;20419;-46
2022/10/09 11:05:13;;;;;;;4.53;2.00;;;49.20;23.20;;;;;;5096407;28;20412;-45
2022/10/09 11:08:16;;;;;;;4.07;1.90;;;49.20;22.80;;;;;;5095725;28;20411;-48
2022/10/09 11:11:09;;;;;;;1.97;1.77;;;49.00;22.80;;;;;;5095059;28;20473;-46
2022/10/09 11:14:02;;;;;;;2.87;1.90;;;49.00;22.50;;;;;;5094706;28;20565;-44
2022/10/09 11:16:47;;;;;;;1.90;1.60;;;48.70;22.70;;;;;;5093521;28;20848;-45
2022/10/09 11:19:28;;;;;;;2.67;2.10;;;48.60;22.80;;;;;;5095351;28;20474;-45
2022/10/09 11:21:56;;;;;;;2.77;2.00;;;47.70;23.00;;;;;;5094063;28;20460;-49
2022/10/09 11:25:00;;;;;;;2.30;2.00;;;47.40;23.40;;;;;;5092432;28;20429;-48
2022/10/09 11:27:37;;;;;;;2.67;1.80;;;47.10;23.50;;;;;;5094115;28;20704;-46
2022/10/09 11:30:08;;;;;;;3.10;2.00;;;47.30;23.50;;;;;;5094306;28;20504;-47
2022/10/09 11:33:13;;;;;;;5.30;1.97;;;47.90;23.50;;;;;;5092850;28;20416;-47
2022/10/09 11:35:43;;;;;;;3.10;2.00;;;48.20;23.40;;;;;;5094908;28;20591;-46
2022/10/09 11:38:29;;;;;;;2.23;1.40;;;48.70;22.80;;;;;;5097764;28;20422;-46
2022/10/09 11:40:55;;;;;;;2.03;1.80;;;48.90;22.70;;;;;;5099145;28;20464;-49
2022/10/09 11:43:24;;;;;;;1.83;1.50;;;49.20;22.90;;;;;;5099336;28;20452;-45
2022/10/09 11:45:49;;;;;;;2.67;2.10;;;49.10;22.20;;;;;;5097654;28;20244;-45
2022/10/09 11:48:36;;;;;;;2.70;2.27;;;48.90;22.70;;;;;;5098574;28;20413;-46
2022/10/09 11:51:08;;;;;;;2.43;1.90;;;48.50;23.00;;;;;;5097525;28;20266;-46
2022/10/09 11:53:35;;;;;;;2.60;2.30;;;47.80;23.10;;;;;;5096805;28;20511;-48
2022/10/09 11:56:17;;;;;;;2.33;1.90;;;46.70;23.10;;;;;;5096323;28;20465;-45
2022/10/09 11:58:43;;;;;;;2.20;2.00;;;46.30;22.80;;;;;;5097895;28;20477;-45
2022/10/09 12:01:22;;;;;;;2.00;1.60;;;46.40;23.10;;;;;;5095626;28;20661;-45
2022/10/09 12:04:03;;;;;;;2.23;2.03;;;46.40;23.00;;;;;;5098349;28;20178;-47
2022/10/09 12:06:29;;;;;;;1.83;1.50;;;46.10;23.40;;;;;;5098772;28;20493;-49
2022/10/09 12:09:05;;;;;;;1.90;1.70;;;46.10;23.20;;;;;;5097724;28;20424;-45
2022/10/09 12:11:32;;;;;;;2.57;1.83;;;45.50;23.70;;;;;;5096858;28;20492;-49
2022/10/09 12:14:04;;;;;;;2.47;2.20;;;45.50;24.00;;;;;;5096720;28;20484;-46
2022/10/09 12:16:37;;;;;;;2.33;1.73;;;45.70;23.70;;;;;;5098794;28;20419;-48
2022/10/09 12:19:19;;;;;;;2.80;2.10;;;46.00;23.10;;;;;;5098061;28;20564;-53
2022/10/09 12:21:52;;;;;;;2.00;1.63;;;46.00;23.30;;;;;;5096038;28;20986;-49
2022/10/09 12:24:28;;;;;;;1.97;1.67;;;46.20;23.30;;;;;;5096972;28;20458;-46
2022/10/09 12:26:55;;;;;;;2.30;1.90;;;46.10;23.40;;;;;;5097116;28;20436;-52
2022/10/09 12:29:27;;;;;;;2.20;1.80;;;45.90;23.70;;;;;;5096618;28;20473;-49
2022/10/09 12:31:57;;;;;;;4.00;2.10;;;45.70;23.70;;;;;;5098787;28;20875;-49
2022/10/09 12:34:30;;;;;;;2.37;1.80;;;45.60;23.70;;;;;;5097120;28;20471;-47
2022/10/09 12:37:17;;;;;;;2.43;2.23;;;45.50;23.50;;;;;;5095265;28;20435;-46
2022/10/09 12:39:44;;;;;;;2.43;2.20;;;45.20;23.60;;;;;;5096574;28;20412;-48
2022/10/09 12:42:19;;;;;;;2.00;1.83;;;45.40;23.30;;;;;;5094799;28;20446;-49
2022/10/09 12:44:45;;;;;;;2.70;2.13;;;45.40;23.60;;;;;;5094581;28;20419;-47
2022/10/09 12:47:25;;;;;;;2.30;2.10;;;45.60;23.40;;;;;;5094100;28;20424;-47
2022/10/09 12:54:06;;;;;;;2.70;1.93;;;45.20;23.90;;;;;;5089649;28;20540;-50
2022/10/09 12:56:35;;;;;;;2.50;1.90;;;45.00;23.70;;;;;;5076147;28;20475;-49
2022/10/09 12:59:01;;;;;;;1.80;1.60;;;45.20;23.80;;;;;;5077991;28;20422;-45
2022/10/09 13:01:27;;;;;;;2.87;2.00;;;45.20;23.60;;;;;;5076263;28;20434;-49
2022/10/09 13:03:57;;;;;;;2.10;1.70;;;45.50;23.50;;;;;;5075991;28;20184;-46
2022/10/09 13:06:26;;;;;;;1.70;1.43;;;46.00;23.40;;;;;;5076216;28;20210;-46
2022/10/09 13:08:57;;;;;;;2.80;1.97;;;46.40;23.30;;;;;;5075717;28;20826;-47